Time,TemperatureF,DewpointF,PressureIn,WindDirection,WindDirectionDegrees,WindSpeedMPH,WindSpeedGustMPH,Humidity,HourlyPrecipIn,Conditions,Clouds,dailyrainin,SoftwareType,DateUTC
2013-08-05 00:02:00,77.0,76.0,-100.00,West,263,1.0,2.0,97,-99.99,,,-99.99,,2013-08-05 04:02:00,
2013-08-05 00:12:00,77.0,76.0,-100.00,West,263,1.0,2.0,97,-99.99,,,-99.99,,2013-08-05 04:12:00,
2013-08-05 00:32:00,77.0,76.0,-100.00,SSW,202,1.0,1.0,97,-99.99,,,-99.99,,2013-08-05 04:32:00,
2013-08-05 00:43:00,76.0,76.0,-100.00,East,85,1.0,1.0,97,-99.99,,,-99.99,,2013-08-05 04:43:00,
2013-08-05 00:52:00,76.0,76.0,-100.00,East,85,1.0,1.0,97,-99.99,,,-99.99,,2013-08-05 04:52:00,
2013-08-05 01:02:00,77.0,76.0,-100.00,WSW,253,2.0,2.0,97,-99.99,,,-99.99,,2013-08-05 05:02:00,
2013-08-05 01:12:00,77.0,76.0,-100.00,WSW,253,2.0,2.0,97,-99.99,,,-99.99,,2013-08-05 05:12:00,
2013-08-05 01:32:00,77.0,76.0,-100.00,West,268,2.0,2.0,98,-99.99,,,-99.99,,2013-08-05 05:32:00,
2013-08-05 01:43:00,76.0,76.0,-100.00,SW,235,2.0,2.0,98,-99.99,,,-99.99,,2013-08-05 05:43:00,
2013-08-05 01:53:00,76.0,76.0,-100.00,SW,235,2.0,2.0,98,-99.99,,,-99.99,,2013-08-05 05:53:00,
2013-08-05 02:02:00,76.0,76.0,-100.00,West,278,1.0,1.0,98,-99.99,,,-99.99,,2013-08-05 06:02:00,
2013-08-05 02:12:00,76.0,76.0,-100.00,West,278,1.0,1.0,98,-99.99,,,-99.99,,2013-08-05 06:12:00,
2013-08-05 02:32:00,76.0,76.0,-100.00,SSW,203,1.0,2.0,98,-99.99,,,-99.99,,2013-08-05 06:32:00,
2013-08-05 02:43:00,76.0,75.0,-100.00,ESE,113,1.0,1.0,98,-99.99,,,-99.99,,2013-08-05 06:43:00,
2013-08-05 02:52:00,76.0,75.0,-100.00,ESE,113,1.0,1.0,98,-99.99,,,-99.99,,2013-08-05 06:52:00,
2013-08-05 03:02:00,76.0,75.0,-100.00,SSW,199,1.0,1.0,98,-99.99,,,-99.99,,2013-08-05 07:02:00,
2013-08-05 03:12:00,76.0,75.0,-100.00,SSW,199,1.0,1.0,98,-99.99,,,-99.99,,2013-08-05 07:12:00,
2013-08-05 03:32:00,76.0,75.0,-100.00,SSW,200,0.0,1.0,98,-99.99,,,-99.99,,2013-08-05 07:32:00,
2013-08-05 03:43:00,75.0,74.0,-100.00,SSE,164,1.0,2.0,98,-99.99,,,-99.99,,2013-08-05 07:43:00,
2013-08-05 03:53:00,75.0,74.0,-100.00,SSE,164,1.0,2.0,98,-99.99,,,-99.99,,2013-08-05 07:53:00,
2013-08-05 04:02:00,75.0,74.0,-100.00,South,178,1.0,2.0,98,-99.99,,,-99.99,,2013-08-05 08:02:00,
2013-08-05 04:22:00,75.0,74.0,-100.00,SSE,152,0.0,1.0,98,-99.99,,,-99.99,,2013-08-05 08:22:00,
2013-08-05 04:34:00,75.0,74.0,-100.00,SSE,152,0.0,1.0,98,-99.99,,,-99.99,,2013-08-05 08:34:00,
2013-08-05 04:49:00,74.0,74.0,-100.00,ESE,110,1.0,1.0,98,-99.99,,,-99.99,,2013-08-05 08:49:00,
2013-08-05 05:07:00,74.0,74.0,-100.00,ESE,110,1.0,2.0,98,-99.99,,,-99.99,,2013-08-05 09:07:00,
2013-08-05 05:19:00,74.0,74.0,-100.00,ESE,110,1.0,2.0,98,-99.99,,,-99.99,,2013-08-05 09:19:00,
2013-08-05 05:40:00,74.0,74.0,-100.00,SW,224,1.0,2.0,98,-99.99,,,-99.99,,2013-08-05 09:40:00,
2013-08-05 05:47:00,73.0,73.0,-100.00,SSW,205,0.0,1.0,98,-99.99,,,-99.99,,2013-08-05 09:47:00,
2013-08-05 05:53:00,73.0,73.0,-100.00,SSW,205,0.0,1.0,98,-99.99,,,-99.99,,2013-08-05 09:53:00,
2013-08-05 06:17:00,73.0,73.0,-100.00,South,176,0.0,1.0,98,-99.99,,,-99.99,,2013-08-05 10:17:00,
2013-08-05 06:34:00,73.0,73.0,-100.00,SE,140,0.0,1.0,98,-99.99,,,-99.99,,2013-08-05 10:34:00,
2013-08-05 06:48:00,73.0,73.0,-100.00,East,80,0.0,1.0,98,-99.99,,,-99.99,,2013-08-05 10:48:00,
2013-08-05 06:53:00,73.0,73.0,-100.00,East,80,0.0,1.0,98,-99.99,,,-99.99,,2013-08-05 10:53:00,
2013-08-05 07:14:00,73.0,73.0,-100.00,ESE,117,0.0,1.0,98,-99.99,,,-99.99,,2013-08-05 11:14:00,
2013-08-05 07:38:00,73.0,73.0,-100.00,ENE,63,0.0,1.0,98,-99.99,,,-99.99,,2013-08-05 11:38:00,
2013-08-05 07:58:00,73.0,73.0,-100.00,SSW,198,1.0,1.0,98,-99.99,,,-99.99,,2013-08-05 11:58:00,
2013-08-05 08:08:00,74.0,74.0,-100.00,SSE,149,1.0,1.0,98,-99.99,,,-99.99,,2013-08-05 12:08:00,
2013-08-05 08:17:00,74.0,74.0,-100.00,SSE,149,1.0,1.0,98,-99.99,,,-99.99,,2013-08-05 12:17:00,
2013-08-05 08:49:00,76.0,76.0,-100.00,South,182,1.0,2.0,98,-99.99,,,-99.99,,2013-08-05 12:49:00,
2013-08-05 09:03:00,78.0,78.0,-100.00,SE,135,1.0,3.0,98,-99.99,,,-99.99,,2013-08-05 13:03:00,
2013-08-05 09:13:00,78.0,78.0,-100.00,SE,135,1.0,3.0,98,-99.99,,,-99.99,,2013-08-05 13:13:00,
2013-08-05 09:44:00,85.0,78.0,-100.00,WNW,285,3.0,6.0,80,-99.99,,,-99.99,,2013-08-05 13:44:00,
2013-08-05 10:06:00,86.0,78.0,-100.00,WNW,287,3.0,6.0,76,-99.99,,,-99.99,,2013-08-05 14:06:00,
2013-08-05 10:28:00,87.0,78.0,-100.00,WNW,287,4.0,7.0,72,-99.99,,,-99.99,,2013-08-05 14:28:00,
2013-08-05 10:48:00,84.0,76.0,-100.00,West,280,3.0,5.0,75,-99.99,,,-99.99,,2013-08-05 14:48:00,
2013-08-05 11:08:00,84.0,76.0,-100.00,West,278,2.0,7.0,76,-99.99,,,-99.99,,2013-08-05 15:08:00,
2013-08-05 11:15:00,84.0,76.0,-100.00,West,278,2.0,7.0,76,-99.99,,,-99.99,,2013-08-05 15:15:00,
2013-08-05 11:38:00,84.0,76.0,-100.00,East,100,3.0,7.0,76,-99.99,,,-99.99,,2013-08-05 15:38:00,
2013-08-05 12:18:00,83.0,76.0,-100.00,ESE,110,4.0,9.0,78,-99.99,,,-99.99,,2013-08-05 16:18:00,
2013-08-05 12:33:00,81.0,75.0,-100.00,SSE,151,1.0,3.0,82,-99.99,,,-99.99,,2013-08-05 16:33:00,
2013-08-05 12:45:00,88.0,78.0,-100.00,West,279,3.0,8.0,70,-99.99,,,-99.99,,2013-08-05 16:45:00,
2013-08-05 13:00:00,88.0,78.0,-100.00,West,279,3.0,8.0,70,-99.99,,,-99.99,,2013-08-05 17:00:00,
2013-08-05 13:16:00,88.0,77.0,-100.00,WNW,283,4.0,9.0,69,-99.99,,,-99.99,,2013-08-05 17:16:00,
2013-08-05 13:38:00,89.0,77.0,-100.00,West,267,5.0,11.0,67,-99.99,,,-99.99,,2013-08-05 17:38:00,
2013-08-05 13:48:00,86.0,77.0,-100.00,WNW,295,8.0,13.0,72,-99.99,,,-99.99,,2013-08-05 17:48:00,
2013-08-05 14:00:00,86.0,77.0,-100.00,WNW,295,8.0,13.0,72,-99.99,,,-99.99,,2013-08-05 18:00:00,
2013-08-05 14:08:00,88.0,77.0,-100.00,West,281,7.0,14.0,69,-99.99,,,-99.99,,2013-08-05 18:08:00,
2013-08-05 14:13:00,88.0,77.0,-100.00,West,281,7.0,14.0,69,-99.99,,,-99.99,,2013-08-05 18:13:00,
2013-08-05 14:38:00,88.0,77.0,-100.00,West,264,9.0,21.0,69,-99.99,,,-99.99,,2013-08-05 18:38:00,
2013-08-05 14:54:00,88.0,76.0,-100.00,West,262,8.0,16.0,67,-99.99,,,-99.99,,2013-08-05 18:54:00,
2013-08-05 15:14:00,90.0,76.0,-100.00,West,267,9.0,16.0,63,-99.99,,,-99.99,,2013-08-05 19:14:00,
2013-08-05 15:39:00,91.0,77.0,-100.00,West,268,7.0,13.0,62,-99.99,,,-99.99,,2013-08-05 19:39:00,
2013-08-05 15:51:00,88.0,76.0,-100.00,West,272,8.0,13.0,67,-99.99,,,-99.99,,2013-08-05 19:51:00,
2013-08-05 15:58:00,88.0,76.0,-100.00,West,272,8.0,13.0,67,-99.99,,,-99.99,,2013-08-05 19:58:00,
2013-08-05 16:15:00,86.0,76.0,-100.00,West,273,6.0,10.0,71,-99.99,,,-99.99,,2013-08-05 20:15:00,
2013-08-05 16:28:00,86.0,76.0,-100.00,West,273,6.0,10.0,71,-99.99,,,-99.99,,2013-08-05 20:28:00,
2013-08-05 16:48:00,82.0,76.0,-100.00,ESE,118,4.0,9.0,84,-99.99,,,-99.99,,2013-08-05 20:48:00,
2013-08-05 17:02:00,82.0,76.0,-100.00,ESE,118,4.0,9.0,84,-99.99,,,-99.99,,2013-08-05 21:02:00,
2013-08-05 17:09:00,80.0,76.0,-100.00,ESE,123,5.0,8.0,86,-99.99,,,-99.99,,2013-08-05 21:09:00,
2013-08-05 17:34:00,81.0,76.0,-100.00,ESE,123,5.0,9.0,83,-99.99,,,-99.99,,2013-08-05 21:34:00,
2013-08-05 17:47:00,85.0,77.0,-100.00,SE,133,5.0,8.0,76,-99.99,,,-99.99,,2013-08-05 21:47:00,
2013-08-05 17:54:00,85.0,77.0,-100.00,SE,133,5.0,8.0,76,-99.99,,,-99.99,,2013-08-05 21:54:00,
2013-08-05 18:05:00,86.0,78.0,-100.00,SE,132,4.0,8.0,75,-99.99,,,-99.99,,2013-08-05 22:05:00,
2013-08-05 18:37:00,87.0,78.0,-100.00,South,180,2.0,5.0,73,-99.99,,,-99.99,,2013-08-05 22:37:00,
2013-08-05 18:44:00,84.0,76.0,-100.00,WNW,285,5.0,9.0,75,-99.99,,,-99.99,,2013-08-05 22:44:00,
2013-08-05 18:53:00,84.0,76.0,-100.00,WNW,285,5.0,9.0,75,-99.99,,,-99.99,,2013-08-05 22:53:00,
2013-08-05 19:07:00,84.0,76.0,-100.00,West,278,4.0,10.0,78,-99.99,,,-99.99,,2013-08-05 23:07:00,
2013-08-05 19:17:00,84.0,76.0,-100.00,West,278,4.0,10.0,78,-99.99,,,-99.99,,2013-08-05 23:17:00,
2013-08-05 19:33:00,83.0,76.0,-100.00,West,281,3.0,6.0,78,-99.99,,,-99.99,,2013-08-05 23:33:00,
2013-08-05 19:46:00,82.0,76.0,-100.00,West,265,3.0,6.0,82,-99.99,,,-99.99,,2013-08-05 23:46:00,
2013-08-05 20:02:00,82.0,76.0,-100.00,West,265,3.0,6.0,82,-99.99,,,-99.99,,2013-08-06 00:02:00,
2013-08-05 20:15:00,82.0,76.0,-100.00,West,273,3.0,5.0,82,-99.99,,,-99.99,,2013-08-06 00:15:00,
2013-08-05 20:37:00,81.0,77.0,-100.00,West,262,2.0,3.0,84,-99.99,,,-99.99,,2013-08-06 00:37:00,
2013-08-05 20:45:00,80.0,77.0,30.02,ENE,77,2.0,3.0,91,-99.99,,,-99.99,,2013-08-06 00:45:00,
2013-08-05 20:57:00,80.0,77.0,30.02,ENE,77,2.0,3.0,91,-99.99,,,-99.99,,2013-08-06 00:57:00,
2013-08-05 21:10:00,80.0,77.0,30.02,ENE,77,2.0,3.0,91,-99.99,,,-99.99,,2013-08-06 01:10:00,